sensor_id;sensor_type;location;lat;lon;timestamp;pressure;altitude;pressure_sealevel;temperature;humidity
63439;BME280;49567;48.958;8.294;2022-11-04T00:01:57;99404.00;;;12.34;84.31
63439;BME280;49567;48.958;8.294;2022-11-04T00:04:24;99409.19;;;12.31;84.52
63439;BME280;49567;48.958;8.294;2022-11-04T00:06:50;99411.91;;;12.31;84.62
63439;BME280;49567;48.958;8.294;2022-11-04T00:09:23;99412.47;;;12.28;84.08
63439;BME280;49567;48.958;8.294;2022-11-04T00:11:49;99416.78;;;12.29;83.75
63439;BME280;49567;48.958;8.294;2022-11-04T00:14:34;99414.91;;;12.29;83.50
63439;BME280;49567;48.958;8.294;2022-11-04T00:17:00;99410.53;;;12.28;83.29
63439;BME280;49567;48.958;8.294;2022-11-04T00:19:48;99420.91;;;12.26;83.42
63439;BME280;49567;48.958;8.294;2022-11-04T00:22:33;99427.72;;;12.24;82.98
63439;BME280;49567;48.958;8.294;2022-11-04T00:25:17;99442.66;;;12.21;82.84
63439;BME280;49567;48.958;8.294;2022-11-04T00:28:05;99463.84;;;12.19;82.82
63439;BME280;49567;48.958;8.294;2022-11-04T00:30:52;99476.09;;;12.17;82.65
63439;BME280;49567;48.958;8.294;2022-11-04T00:33:18;99486.69;;;12.18;82.73
63439;BME280;49567;48.958;8.294;2022-11-04T00:35:51;99473.63;;;12.20;82.33
63439;BME280;49567;48.958;8.294;2022-11-04T00:38:17;99473.09;;;12.18;82.02
63439;BME280;49567;48.958;8.294;2022-11-04T00:40:42;99467.41;;;12.15;82.02
63439;BME280;49567;48.958;8.294;2022-11-04T00:43:07;99469.59;;;12.13;82.01
63439;BME280;49567;48.958;8.294;2022-11-04T00:45:33;99480.72;;;12.16;81.85
63439;BME280;49567;48.958;8.294;2022-11-04T00:47:58;99483.97;;;12.18;81.95
63439;BME280;49567;48.958;8.294;2022-11-04T00:50:23;99485.63;;;12.14;81.89
63439;BME280;49567;48.958;8.294;2022-11-04T00:52:49;99496.75;;;12.13;81.96
63439;BME280;49567;48.958;8.294;2022-11-04T00:55:14;99495.13;;;12.12;81.83
63439;BME280;49567;48.958;8.294;2022-11-04T00:57:39;99496.53;;;12.04;81.75
63439;BME280;49567;48.958;8.294;2022-11-04T01:00:05;99497.84;;;12.07;81.58
63439;BME280;49567;48.958;8.294;2022-11-04T01:02:31;99485.63;;;12.09;81.46
63439;BME280;49567;48.958;8.294;2022-11-04T01:04:56;99491.88;;;12.10;81.66
63439;BME280;49567;48.958;8.294;2022-11-04T01:07:21;99489.97;;;12.10;81.48
63439;BME280;49567;48.958;8.294;2022-11-04T01:09:48;99489.97;;;12.10;81.47
63439;BME280;49567;48.958;8.294;2022-11-04T01:12:13;99495.97;;;12.07;81.58
63439;BME280;49567;48.958;8.294;2022-11-04T01:14:39;99486.16;;;12.11;81.38
63439;BME280;49567;48.958;8.294;2022-11-04T01:17:04;99494.31;;;12.06;81.69
63439;BME280;49567;48.958;8.294;2022-11-04T01:19:30;99497.84;;;12.07;81.74
63439;BME280;49567;48.958;8.294;2022-11-04T01:21:55;99483.19;;;12.08;81.49
63439;BME280;49567;48.958;8.294;2022-11-04T01:24:20;99487.81;;;12.07;81.77
63439;BME280;49567;48.958;8.294;2022-11-04T01:26:46;99479.38;;;12.09;81.81
63439;BME280;49567;48.958;8.294;2022-11-04T01:29:11;99479.09;;;12.10;81.66
63439;BME280;49567;48.958;8.294;2022-11-04T01:31:36;99471.53;;;12.07;81.94
63439;BME280;49567;48.958;8.294;2022-11-04T01:34:02;99482.38;;;12.07;81.77
63439;BME280;49567;48.958;8.294;2022-11-04T01:36:28;99495.97;;;12.07;81.97
63439;BME280;49567;48.958;8.294;2022-11-04T01:38:54;99493.25;;;12.07;81.76
63439;BME280;49567;48.958;8.294;2022-11-04T01:41:24;99490.78;;;12.06;81.77
63439;BME280;49567;48.958;8.294;2022-11-04T01:43:58;99490.00;;;12.05;81.63
63439;BME280;49567;48.958;8.294;2022-11-04T01:46:31;99494.06;;;12.03;81.60
63439;BME280;49567;48.958;8.294;2022-11-04T01:49:23;99497.34;;;12.05;81.56
63439;BME280;49567;48.958;8.294;2022-11-04T01:52:05;99504.09;;;12.02;81.43
63439;BME280;49567;48.958;8.294;2022-11-04T01:54:31;99500.59;;;12.02;81.90
63439;BME280;49567;48.958;8.294;2022-11-04T01:56:59;99499.22;;;11.99;82.10
63439;BME280;49567;48.958;8.294;2022-11-04T01:59:34;99499.53;;;11.98;81.64
63439;BME280;49567;48.958;8.294;2022-11-04T02:02:01;99498.72;;;11.97;81.59
63439;BME280;49567;48.958;8.294;2022-11-04T02:04:28;99504.41;;;11.95;81.54
63439;BME280;49567;48.958;8.294;2022-11-04T02:06:59;99498.44;;;11.93;81.67
63439;BME280;49567;48.958;8.294;2022-11-04T02:09:27;99497.94;;;11.91;81.39
63439;BME280;49567;48.958;8.294;2022-11-04T02:11:53;99491.13;;;11.89;81.35
63439;BME280;49567;48.958;8.294;2022-11-04T02:14:37;99496.06;;;11.82;81.45
63439;BME280;49567;48.958;8.294;2022-11-04T02:19:58;99502.00;;;11.84;80.93
63439;BME280;49567;48.958;8.294;2022-11-04T02:23:09;99501.19;;;11.83;81.10
63439;BME280;49567;48.958;8.294;2022-11-04T02:29:14;99487.63;;;11.83;80.83
63439;BME280;49567;48.958;8.294;2022-11-04T02:32:41;99491.16;;;11.79;80.73
63439;BME280;49567;48.958;8.294;2022-11-04T02:34:57;99492.78;;;11.80;80.71
63439;BME280;49567;48.958;8.294;2022-11-04T02:40:41;99480.59;;;11.77;80.68
63439;BME280;49567;48.958;8.294;2022-11-04T02:43:22;99488.22;;;11.75;80.61
63439;BME280;49567;48.958;8.294;2022-11-04T02:46:01;99491.41;;;11.82;80.35
63439;BME280;49567;48.958;8.294;2022-11-04T02:48:38;99490.88;;;11.90;79.90
63439;BME280;49567;48.958;8.294;2022-11-04T02:51:12;99497.09;;;11.86;79.86
63439;BME280;49567;48.958;8.294;2022-11-04T02:56:12;99503.09;;;11.83;80.10
63439;BME280;49567;48.958;8.294;2022-11-04T02:58:46;99495.78;;;11.83;80.14
63439;BME280;49567;48.958;8.294;2022-11-04T03:01:16;99503.66;;;11.85;80.14
63439;BME280;49567;48.958;8.294;2022-11-04T03:03:47;99501.19;;;11.83;80.00
63439;BME280;49567;48.958;8.294;2022-11-04T03:06:16;99509.63;;;11.82;80.21
63439;BME280;49567;48.958;8.294;2022-11-04T03:08:47;99509.09;;;11.85;80.20
63439;BME280;49567;48.958;8.294;2022-11-04T03:11:16;99501.75;;;11.80;79.87
63439;BME280;49567;48.958;8.294;2022-11-04T03:14:04;99494.13;;;11.82;79.91
63439;BME280;49567;48.958;8.294;2022-11-04T03:16:47;99477.31;;;11.80;79.88
63439;BME280;49567;48.958;8.294;2022-11-04T03:19:39;99485.19;;;11.82;79.84
63439;BME280;49567;48.958;8.294;2022-11-04T03:22:11;99497.97;;;11.81;80.08
63439;BME280;49567;48.958;8.294;2022-11-04T03:24:39;99489.25;;;11.79;80.16
63439;BME280;49567;48.958;8.294;2022-11-04T03:27:14;99494.97;;;11.78;80.21
63439;BME280;49567;48.958;8.294;2022-11-04T03:29:51;99488.22;;;11.75;80.36
63439;BME280;49567;48.958;8.294;2022-11-04T03:34:54;99500.41;;;11.68;80.25
63439;BME280;49567;48.958;8.294;2022-11-04T03:37:20;99513.97;;;11.68;80.42
63439;BME280;49567;48.958;8.294;2022-11-04T03:39:45;99503.94;;;11.68;80.18
63439;BME280;49567;48.958;8.294;2022-11-04T03:42:12;99497.97;;;11.71;80.06
63439;BME280;49567;48.958;8.294;2022-11-04T03:44:51;99490.38;;;11.68;80.30
63439;BME280;49567;48.958;8.294;2022-11-04T03:47:18;99508.53;;;11.68;80.27
63439;BME280;49567;48.958;8.294;2022-11-04T03:49:45;99504.50;;;11.70;79.92
63439;BME280;49567;48.958;8.294;2022-11-04T03:52:11;99499.59;;;11.72;79.89
63439;BME280;49567;48.958;8.294;2022-11-04T03:54:37;99498.50;;;11.73;80.07
63439;BME280;49567;48.958;8.294;2022-11-04T04:00:03;99502.84;;;11.74;79.84
63439;BME280;49567;48.958;8.294;2022-11-04T04:02:56;99483.56;;;11.76;80.05
63439;BME280;49567;48.958;8.294;2022-11-04T04:05:28;99481.16;;;11.74;80.19
63439;BME280;49567;48.958;8.294;2022-11-04T04:10:41;99489.53;;;11.73;79.99
63439;BME280;49567;48.958;8.294;2022-11-04T04:13:17;99481.69;;;11.71;80.28
63439;BME280;49567;48.958;8.294;2022-11-04T04:15:48;99480.59;;;11.67;80.44
63439;BME280;49567;48.958;8.294;2022-11-04T04:18:18;99475.41;;;11.66;80.59
63439;BME280;49567;48.958;8.294;2022-11-04T04:20:48;99474.63;;;11.65;80.63
63439;BME280;49567;48.958;8.294;2022-11-04T04:23:22;99464.03;;;11.64;80.57
63439;BME280;49567;48.958;8.294;2022-11-04T04:26:08;99462.13;;;11.64;80.66
63439;BME280;49567;48.958;8.294;2022-11-04T04:28:55;99472.19;;;11.64;80.71
63439;BME280;49567;48.958;8.294;2022-11-04T04:31:22;99475.19;;;11.62;80.62
63439;BME280;49567;48.958;8.294;2022-11-04T04:34:07;99470.56;;;11.58;80.80
63439;BME280;49567;48.958;8.294;2022-11-04T04:36:40;99477.38;;;11.50;81.14
63439;BME280;49567;48.958;8.294;2022-11-04T04:39:08;99480.63;;;11.47;80.94
63439;BME280;49567;48.958;8.294;2022-11-04T04:41:54;99483.91;;;11.49;81.09
63439;BME280;49567;48.958;8.294;2022-11-04T04:44:41;99481.72;;;11.51;80.90
63439;BME280;49567;48.958;8.294;2022-11-04T04:47:27;99486.88;;;11.48;80.98
63439;BME280;49567;48.958;8.294;2022-11-04T04:49:59;99483.09;;;11.49;80.93
63439;BME280;49567;48.958;8.294;2022-11-04T04:52:28;99471.97;;;11.45;80.77
63439;BME280;49567;48.958;8.294;2022-11-04T04:54:54;99460.56;;;11.43;80.80
63439;BME280;49567;48.958;8.294;2022-11-04T04:57:20;99466.28;;;11.41;81.30
63439;BME280;49567;48.958;8.294;2022-11-04T04:59:45;99461.66;;;11.42;81.06
63439;BME280;49567;48.958;8.294;2022-11-04T05:02:10;99460.84;;;11.41;81.05
63439;BME280;49567;48.958;8.294;2022-11-04T05:04:36;99455.41;;;11.41;80.94
63439;BME280;49567;48.958;8.294;2022-11-04T05:07:01;99460.56;;;11.38;80.86
63439;BME280;49567;48.958;8.294;2022-11-04T05:09:27;99458.13;;;11.41;80.84
63439;BME280;49567;48.958;8.294;2022-11-04T05:11:52;99460.81;;;11.46;80.58
63439;BME280;49567;48.958;8.294;2022-11-04T05:14:17;99450.22;;;11.50;80.59
63439;BME280;49567;48.958;8.294;2022-11-04T05:16:43;99447.78;;;11.54;80.37
63439;BME280;49567;48.958;8.294;2022-11-04T05:19:08;99448.31;;;11.61;80.08
63439;BME280;49567;48.958;8.294;2022-11-04T05:21:33;99438.25;;;11.66;79.61
63439;BME280;49567;48.958;8.294;2022-11-04T05:23:59;99437.16;;;11.67;79.75
63439;BME280;49567;48.958;8.294;2022-11-04T05:26:24;99424.66;;;11.66;79.85
63439;BME280;49567;48.958;8.294;2022-11-04T05:28:49;99423.34;;;11.64;79.92
63439;BME280;49567;48.958;8.294;2022-11-04T05:31:15;99401.91;;;11.62;80.25
63439;BME280;49567;48.958;8.294;2022-11-04T05:33:40;99407.09;;;11.59;80.13
63439;BME280;49567;48.958;8.294;2022-11-04T05:38:32;99404.94;;;11.56;80.25
63439;BME280;49567;48.958;8.294;2022-11-04T05:40:57;99403.84;;;11.52;80.07
63439;BME280;49567;48.958;8.294;2022-11-04T05:43:23;99404.66;;;11.47;80.59
63439;BME280;49567;48.958;8.294;2022-11-04T05:45:48;99415.53;;;11.42;80.40
63439;BME280;49567;48.958;8.294;2022-11-04T05:48:13;99416.38;;;11.42;80.36
63439;BME280;49567;48.958;8.294;2022-11-04T05:50:40;99421.22;;;11.45;80.10
63439;BME280;49567;48.958;8.294;2022-11-04T05:53:06;99430.41;;;11.50;80.17
63439;BME280;49567;48.958;8.294;2022-11-04T05:55:31;99427.44;;;11.51;79.97
63439;BME280;49567;48.958;8.294;2022-11-04T05:57:56;99439.38;;;11.50;80.27
63439;BME280;49567;48.958;8.294;2022-11-04T06:00:24;99426.09;;;11.49;79.99
63439;BME280;49567;48.958;8.294;2022-11-04T06:02:50;99420.94;;;11.52;80.12
63439;BME280;49567;48.958;8.294;2022-11-04T06:05:18;99428.25;;;11.52;80.06
63439;BME280;49567;48.958;8.294;2022-11-04T06:07:44;99431.25;;;11.50;80.25
63439;BME280;49567;48.958;8.294;2022-11-04T06:10:09;99432.06;;;11.51;79.87
63439;BME280;49567;48.958;8.294;2022-11-04T06:12:34;99432.06;;;11.51;80.00
63439;BME280;49567;48.958;8.294;2022-11-04T06:15:03;99431.53;;;11.49;79.83
63439;BME280;49567;48.958;8.294;2022-11-04T06:17:28;99439.13;;;11.46;80.03
63439;BME280;49567;48.958;8.294;2022-11-04T06:19:53;99436.13;;;11.43;80.07
63439;BME280;49567;48.958;8.294;2022-11-04T06:22:18;99440.78;;;11.42;80.28
63439;BME280;49567;48.958;8.294;2022-11-04T06:24:44;99441.56;;;11.43;80.31
63439;BME280;49567;48.958;8.294;2022-11-04T06:27:10;99441.03;;;11.41;80.30
63439;BME280;49567;48.958;8.294;2022-11-04T06:29:36;99435.88;;;11.39;80.54
63439;BME280;49567;48.958;8.294;2022-11-04T06:32:06;99426.69;;;11.35;80.61
63439;BME280;49567;48.958;8.294;2022-11-04T06:34:32;99433.72;;;11.36;80.67
63439;BME280;49567;48.958;8.294;2022-11-04T06:36:57;99438.31;;;11.41;80.36
63439;BME280;49567;48.958;8.294;2022-11-04T06:39:22;99430.44;;;11.39;80.19
63439;BME280;49567;48.958;8.294;2022-11-04T06:41:48;99433.16;;;11.39;80.35
63439;BME280;49567;48.958;8.294;2022-11-04T06:44:13;99432.91;;;11.41;80.17
63439;BME280;49567;48.958;8.294;2022-11-04T06:46:40;99434.53;;;11.42;80.21
63439;BME280;49567;48.958;8.294;2022-11-04T06:49:09;99437.50;;;11.45;80.42
63439;BME280;49567;48.958;8.294;2022-11-04T06:51:35;99447.00;;;11.48;80.32
63439;BME280;49567;48.958;8.294;2022-11-04T06:54:00;99457.00;;;11.53;80.30
63439;BME280;49567;48.958;8.294;2022-11-04T06:56:26;99451.84;;;11.56;80.05
63439;BME280;49567;48.958;8.294;2022-11-04T06:58:53;99458.63;;;11.59;80.03
63439;BME280;49567;48.958;8.294;2022-11-04T07:01:20;99466.50;;;11.60;79.87
63439;BME280;49567;48.958;8.294;2022-11-04T07:03:54;99459.44;;;11.59;79.91
63439;BME280;49567;48.958;8.294;2022-11-04T07:06:20;99462.97;;;11.60;80.00
63439;BME280;49567;48.958;8.294;2022-11-04T07:08:47;99462.69;;;11.61;79.86
63439;BME280;49567;48.958;8.294;2022-11-04T07:11:13;99467.06;;;11.47;80.50
63439;BME280;49567;48.958;8.294;2022-11-04T07:13:38;99473.56;;;11.46;80.73
63439;BME280;49567;48.958;8.294;2022-11-04T07:16:07;99474.94;;;11.49;80.82
63439;BME280;49567;48.958;8.294;2022-11-04T07:18:33;99479.25;;;11.50;80.75
63439;BME280;49567;48.958;8.294;2022-11-04T07:20:59;99485.25;;;11.52;80.78
63439;BME280;49567;48.958;8.294;2022-11-04T07:23:24;99480.34;;;11.54;81.02
63439;BME280;49567;48.958;8.294;2022-11-04T07:25:50;99476.56;;;11.55;80.94
63439;BME280;49567;48.958;8.294;2022-11-04T07:28:15;99478.72;;;11.58;81.03
63439;BME280;49567;48.958;8.294;2022-11-04T07:30:41;99481.44;;;11.58;80.92
63439;BME280;49567;48.958;8.294;2022-11-04T07:33:06;99473.81;;;11.60;81.11
63439;BME280;49567;48.958;8.294;2022-11-04T07:35:32;99476.25;;;11.61;80.80
63439;BME280;49567;48.958;8.294;2022-11-04T07:37:57;99477.91;;;11.62;80.77
63439;BME280;49567;48.958;8.294;2022-11-04T07:40:23;99472.19;;;11.69;80.46
63439;BME280;49567;48.958;8.294;2022-11-04T07:42:48;99475.16;;;11.72;80.32
63439;BME280;49567;48.958;8.294;2022-11-04T07:45:14;99471.91;;;11.75;79.90
63439;BME280;49567;48.958;8.294;2022-11-04T07:47:39;99461.06;;;11.75;79.81
63439;BME280;49567;48.958;8.294;2022-11-04T07:50:04;99460.78;;;11.77;79.80
63439;BME280;49567;48.958;8.294;2022-11-04T07:52:30;99460.22;;;11.80;79.90
63439;BME280;49567;48.958;8.294;2022-11-04T07:54:55;99464.56;;;11.76;79.73
63439;BME280;49567;48.958;8.294;2022-11-04T07:57:20;99453.44;;;11.77;79.52
63439;BME280;49567;48.958;8.294;2022-11-04T07:59:46;99457.25;;;11.81;79.11
63439;BME280;49567;48.958;8.294;2022-11-04T08:02:11;99443.63;;;11.86;79.06
63439;BME280;49567;48.958;8.294;2022-11-04T08:04:37;99440.09;;;11.91;78.61
63439;BME280;49567;48.958;8.294;2022-11-04T08:07:02;99440.88;;;11.96;77.71
63439;BME280;49567;48.958;8.294;2022-11-04T08:09:31;99445.22;;;11.98;78.14
63439;BME280;49567;48.958;8.294;2022-11-04T08:11:56;99441.69;;;11.97;77.96
63439;BME280;49567;48.958;8.294;2022-11-04T08:14:21;99438.94;;;12.02;77.67
63439;BME280;49567;48.958;8.294;2022-11-04T08:16:49;99435.69;;;12.05;77.44
63439;BME280;49567;48.958;8.294;2022-11-04T08:19:14;99429.41;;;12.15;77.06
63439;BME280;49567;48.958;8.294;2022-11-04T08:21:40;99427.19;;;12.17;77.03
63439;BME280;49567;48.958;8.294;2022-11-04T08:24:05;99426.06;;;12.23;76.36
63439;BME280;49567;48.958;8.294;2022-11-04T08:26:31;99426.63;;;12.25;76.52
63439;BME280;49567;48.958;8.294;2022-11-04T08:28:56;99420.91;;;12.26;76.56
63439;BME280;49567;48.958;8.294;2022-11-04T08:31:29;99428.47;;;12.34;76.43
63439;BME280;49567;48.958;8.294;2022-11-04T08:33:55;99419.50;;;12.34;76.22
63439;BME280;49567;48.958;8.294;2022-11-04T08:36:22;99421.34;;;12.38;76.23
63439;BME280;49567;48.958;8.294;2022-11-04T08:38:48;99419.44;;;12.44;76.31
63439;BME280;49567;48.958;8.294;2022-11-04T08:41:17;99414.19;;;12.53;75.60
63439;BME280;49567;48.958;8.294;2022-11-04T08:43:44;99411.16;;;12.59;75.71
63439;BME280;49567;48.958;8.294;2022-11-04T08:46:11;99420.06;;;12.70;75.48
63439;BME280;49567;48.958;8.294;2022-11-04T08:48:37;99425.94;;;12.82;74.90
63439;BME280;49567;48.958;8.294;2022-11-04T08:51:04;99427.25;;;12.89;74.55
63439;BME280;49567;48.958;8.294;2022-11-04T08:53:30;99415.78;;;12.92;74.55
63439;BME280;49567;48.958;8.294;2022-11-04T08:55:56;99414.16;;;12.91;74.29
63439;BME280;49567;48.958;8.294;2022-11-04T08:58:22;99418.69;;;13.01;74.32
63439;BME280;49567;48.958;8.294;2022-11-04T09:00:49;99411.84;;;13.14;73.48
63439;BME280;49567;48.958;8.294;2022-11-04T09:03:15;99418.88;;;13.15;73.08
63439;BME280;49567;48.958;8.294;2022-11-04T09:05:41;99426.00;;;13.06;73.73
63439;BME280;49567;48.958;8.294;2022-11-04T09:08:12;99435.16;;;13.20;73.48
63439;BME280;49567;48.958;8.294;2022-11-04T09:10:46;99441.09;;;13.27;73.00
63439;BME280;49567;48.958;8.294;2022-11-04T09:13:13;99434.81;;;13.26;72.49
63439;BME280;49567;48.958;8.294;2022-11-04T09:15:40;99437.88;;;13.20;72.13
63439;BME280;49567;48.958;8.294;2022-11-04T09:18:06;99436.41;;;13.32;72.31
63439;BME280;49567;48.958;8.294;2022-11-04T09:20:32;99441.66;;;13.47;71.67
63439;BME280;49567;48.958;8.294;2022-11-04T09:22:58;99441.41;;;13.49;71.71
63439;BME280;49567;48.958;8.294;2022-11-04T09:25:24;99434.56;;;13.51;71.73
63439;BME280;49567;48.958;8.294;2022-11-04T09:27:49;99444.59;;;13.56;71.75
63439;BME280;49567;48.958;8.294;2022-11-04T09:30:15;99450.09;;;13.75;71.20
63439;BME280;49567;48.958;8.294;2022-11-04T09:32:41;99457.19;;;14.18;69.58
63439;BME280;49567;48.958;8.294;2022-11-04T09:35:07;99457.31;;;14.08;69.56
63439;BME280;49567;48.958;8.294;2022-11-04T09:37:32;99465.09;;;13.96;69.51
63439;BME280;49567;48.958;8.294;2022-11-04T09:39:58;99461.03;;;13.93;69.53
63439;BME280;49567;48.958;8.294;2022-11-04T09:45:00;99477.47;;;13.83;69.68
63439;BME280;49567;48.958;8.294;2022-11-04T09:47:27;99466.66;;;13.78;69.68
63439;BME280;49567;48.958;8.294;2022-11-04T09:49:57;99466.69;;;13.73;69.47
63439;BME280;49567;48.958;8.294;2022-11-04T09:54:55;99469.78;;;13.67;68.76
63439;BME280;49567;48.958;8.294;2022-11-04T09:57:23;99463.31;;;13.63;68.89
63439;BME280;49567;48.958;8.294;2022-11-04T09:59:49;99472.63;;;13.57;67.96
63439;BME280;49567;48.958;8.294;2022-11-04T10:02:29;99471.00;;;13.56;68.43
63439;BME280;49567;48.958;8.294;2022-11-04T10:10:23;99482.41;;;13.58;68.33
63439;BME280;49567;48.958;8.294;2022-11-04T10:19:07;99478.00;;;13.62;67.96
63439;BME280;49567;48.958;8.294;2022-11-04T10:21:57;99474.69;;;13.65;68.12
63439;BME280;49567;48.958;8.294;2022-11-04T10:24:48;99468.91;;;13.71;67.85
63439;BME280;49567;48.958;8.294;2022-11-04T10:27:22;99474.00;;;13.78;67.39
63439;BME280;49567;48.958;8.294;2022-11-04T10:30:03;99471.00;;;13.79;67.56
63439;BME280;49567;48.958;8.294;2022-11-04T10:32:37;99465.84;;;13.78;68.32
63439;BME280;49567;48.958;8.294;2022-11-04T10:35:28;99472.38;;;13.77;68.30
63439;BME280;49567;48.958;8.294;2022-11-04T10:37:55;99465.69;;;13.69;68.60
63439;BME280;49567;48.958;8.294;2022-11-04T10:40:24;99465.09;;;13.72;68.99
63439;BME280;49567;48.958;8.294;2022-11-04T10:42:52;99468.34;;;13.74;68.45
63439;BME280;49567;48.958;8.294;2022-11-04T10:45:20;99459.06;;;13.75;68.43
63439;BME280;49567;48.958;8.294;2022-11-04T10:48:11;99466.94;;;13.77;68.32
63439;BME280;49567;48.958;8.294;2022-11-04T10:50:51;99460.34;;;13.83;68.26
63439;BME280;49567;48.958;8.294;2022-11-04T10:53:21;99465.66;;;13.93;68.48
63439;BME280;49567;48.958;8.294;2022-11-04T10:55:56;99469.97;;;13.99;68.29
63439;BME280;49567;48.958;8.294;2022-11-04T10:58:26;99466.53;;;13.88;69.07
63439;BME280;49567;48.958;8.294;2022-11-04T11:00:53;99463.59;;;13.85;69.25
63439;BME280;49567;48.958;8.294;2022-11-04T11:03:27;99464.06;;;13.92;69.84
63439;BME280;49567;48.958;8.294;2022-11-04T11:06:09;99462.38;;;13.96;70.46
63439;BME280;49567;48.958;8.294;2022-11-04T11:08:34;99461.72;;;14.04;70.87
63439;BME280;49567;48.958;8.294;2022-11-04T11:11:06;99464.25;;;14.19;71.12
63439;BME280;49567;48.958;8.294;2022-11-04T11:13:40;99457.31;;;14.27;71.15
63439;BME280;49567;48.958;8.294;2022-11-04T11:16:17;99467.38;;;14.31;71.17
63439;BME280;49567;48.958;8.294;2022-11-04T11:18:43;99461.25;;;14.39;70.57
63439;BME280;49567;48.958;8.294;2022-11-04T11:21:14;99462.84;;;14.45;70.72
63439;BME280;49567;48.958;8.294;2022-11-04T11:23:41;99464.44;;;14.46;70.96
63439;BME280;49567;48.958;8.294;2022-11-04T11:26:12;99468.50;;;14.49;70.92
63439;BME280;49567;48.958;8.294;2022-11-04T11:28:39;99454.31;;;14.52;71.00
63439;BME280;49567;48.958;8.294;2022-11-04T11:31:14;99459.88;;;14.61;70.54
63439;BME280;49567;48.958;8.294;2022-11-04T11:33:55;99453.75;;;14.69;70.29
63439;BME280;49567;48.958;8.294;2022-11-04T11:36:27;99448.34;;;14.82;69.35
63439;BME280;49567;48.958;8.294;2022-11-04T11:39:42;99451.84;;;14.88;69.36
63439;BME280;49567;48.958;8.294;2022-11-04T11:42:05;99450.81;;;14.84;69.67
63439;BME280;49567;48.958;8.294;2022-11-04T11:44:39;99441.31;;;14.81;69.83
63439;BME280;49567;48.958;8.294;2022-11-04T11:47:20;99434.00;;;14.77;69.74
63439;BME280;49567;48.958;8.294;2022-11-04T11:52:33;99433.78;;;14.73;69.60
63439;BME280;49567;48.958;8.294;2022-11-04T11:55:16;99429.72;;;14.71;69.86
63439;BME280;49567;48.958;8.294;2022-11-04T11:57:49;99425.91;;;14.72;69.92
63439;BME280;49567;48.958;8.294;2022-11-04T12:00:17;99420.38;;;14.77;69.01
63439;BME280;49567;48.958;8.294;2022-11-04T12:02:52;99412.69;;;14.79;68.26
63439;BME280;49567;48.958;8.294;2022-11-04T12:05:32;99420.16;;;14.73;67.76
63439;BME280;49567;48.958;8.294;2022-11-04T12:08:18;99410.66;;;14.71;67.35
63439;BME280;49567;48.958;8.294;2022-11-04T12:10:57;99413.88;;;14.91;65.69
63439;BME280;49567;48.958;8.294;2022-11-04T12:13:48;99412.28;;;14.85;65.77
63439;BME280;49567;48.958;8.294;2022-11-04T12:16:32;99409.16;;;14.78;65.89
63439;BME280;49567;48.958;8.294;2022-11-04T12:27:54;99421.50;;;14.89;65.45
63439;BME280;49567;48.958;8.294;2022-11-04T12:30:23;99421.16;;;15.10;64.80
63439;BME280;49567;48.958;8.294;2022-11-04T12:32:59;99409.38;;;15.14;64.54
63439;BME280;49567;48.958;8.294;2022-11-04T12:38:27;99412.66;;;14.97;64.34
63439;BME280;49567;48.958;8.294;2022-11-04T12:41:05;99408.22;;;15.01;64.37
63439;BME280;49567;48.958;8.294;2022-11-04T12:43:49;99410.56;;;15.08;63.79
63439;BME280;49567;48.958;8.294;2022-11-04T12:46:33;99417.41;;;15.05;63.53
63439;BME280;49567;48.958;8.294;2022-11-04T12:52:49;99419.88;;;14.75;64.06
63439;BME280;49567;48.958;8.294;2022-11-04T12:55:55;99418.28;;;14.69;64.33
63439;BME280;49567;48.958;8.294;2022-11-04T12:58:57;99423.25;;;14.67;63.93
63439;BME280;49567;48.958;8.294;2022-11-04T13:01:33;99423.25;;;14.67;64.04
63439;BME280;49567;48.958;8.294;2022-11-04T13:04:19;99426.56;;;14.64;63.42
63439;BME280;49567;48.958;8.294;2022-11-04T13:07:15;99421.50;;;14.57;63.92
63439;BME280;49567;48.958;8.294;2022-11-04T13:09:52;99432.03;;;14.45;64.20
63439;BME280;49567;48.958;8.294;2022-11-04T13:12:39;99437.16;;;14.28;64.62
63439;BME280;49567;48.958;8.294;2022-11-04T13:15:22;99441.06;;;14.22;64.81
63439;BME280;49567;48.958;8.294;2022-11-04T13:17:53;99445.09;;;14.24;64.52
63439;BME280;49567;48.958;8.294;2022-11-04T13:20:44;99445.03;;;14.29;64.20
63439;BME280;49567;48.958;8.294;2022-11-04T13:23:23;99445.66;;;14.45;64.27
63439;BME280;49567;48.958;8.294;2022-11-04T13:25:52;99450.38;;;14.58;64.13
63439;BME280;49567;48.958;8.294;2022-11-04T13:28:25;99449.31;;;14.73;63.42
63439;BME280;49567;48.958;8.294;2022-11-04T13:31:01;99450.38;;;14.77;62.98
63439;BME280;49567;48.958;8.294;2022-11-04T13:33:40;99454.63;;;14.83;62.51
63439;BME280;49567;48.958;8.294;2022-11-04T13:38:58;99466.06;;;14.85;62.36
63439;BME280;49567;48.958;8.294;2022-11-04T13:41:39;99469.59;;;14.85;62.57
63439;BME280;49567;48.958;8.294;2022-11-04T13:44:23;99471.00;;;14.83;62.24
63439;BME280;49567;48.958;8.294;2022-11-04T13:46:52;99482.00;;;14.78;62.26
63439;BME280;49567;48.958;8.294;2022-11-04T13:49:33;99478.44;;;14.77;62.00
63439;BME280;49567;48.958;8.294;2022-11-04T13:52:09;99485.31;;;14.75;62.22
63439;BME280;49567;48.958;8.294;2022-11-04T13:57:17;99483.84;;;14.64;62.91
63439;BME280;49567;48.958;8.294;2022-11-04T14:18:43;99498.03;;;14.79;63.35
63439;BME280;49567;48.958;8.294;2022-11-04T14:21:22;99504.25;;;14.85;63.21
63439;BME280;49567;48.958;8.294;2022-11-04T14:23:57;99508.97;;;14.79;63.18
63439;BME280;49567;48.958;8.294;2022-11-04T14:26:42;99508.50;;;14.72;63.47
63439;BME280;49567;48.958;8.294;2022-11-04T14:29:16;99507.88;;;14.62;63.98
63439;BME280;49567;48.958;8.294;2022-11-04T14:31:46;99515.38;;;14.51;63.69
63439;BME280;49567;48.958;8.294;2022-11-04T14:34:32;99519.84;;;14.42;63.77
63439;BME280;49567;48.958;8.294;2022-11-04T14:37:23;99523.72;;;14.36;63.25
63439;BME280;49567;48.958;8.294;2022-11-04T14:40:00;99526.00;;;14.29;63.48
63439;BME280;49567;48.958;8.294;2022-11-04T14:42:49;99522.50;;;14.23;63.43
63439;BME280;49567;48.958;8.294;2022-11-04T14:45:21;99525.47;;;14.27;63.80